sensor_id;sensor_type;location;lat;lon;timestamp;P1;durP1;ratioP1;P2;durP2;ratioP2
47239;SDS011;32978;53.586;10.052;2023-05-07T00:00:48;13.23;;;11.57;;
47239;SDS011;32978;53.586;10.052;2023-05-07T00:05:47;13.02;;;11.20;;
47239;SDS011;32978;53.586;10.052;2023-05-07T00:10:44;13.43;;;10.52;;
47239;SDS011;32978;53.586;10.052;2023-05-07T00:15:40;15.32;;;12.00;;
47239;SDS011;32978;53.586;10.052;2023-05-07T00:20:37;13.32;;;11.30;;
47239;SDS011;32978;53.586;10.052;2023-05-07T00:25:33;14.95;;;12.02;;
47239;SDS011;32978;53.586;10.052;2023-05-07T00:30:30;11.65;;;10.40;;
47239;SDS011;32978;53.586;10.052;2023-05-07T00:35:27;15.95;;;12.00;;
47239;SDS011;32978;53.586;10.052;2023-05-07T00:40:26;14.27;;;11.35;;
47239;SDS011;32978;53.586;10.052;2023-05-07T00:45:26;16.20;;;11.25;;
47239;SDS011;32978;53.586;10.052;2023-05-07T00:50:23;13.95;;;11.20;;
47239;SDS011;32978;53.586;10.052;2023-05-07T00:55:21;14.02;;;11.32;;
47239;SDS011;32978;53.586;10.052;2023-05-07T01:00:21;16.70;;;12.20;;
47239;SDS011;32978;53.586;10.052;2023-05-07T01:05:17;14.10;;;11.05;;
47239;SDS011;32978;53.586;10.052;2023-05-07T01:10:15;14.95;;;12.02;;
47239;SDS011;32978;53.586;10.052;2023-05-07T01:15:13;13.88;;;10.95;;
47239;SDS011;32978;53.586;10.052;2023-05-07T01:20:13;15.75;;;12.50;;
47239;SDS011;32978;53.586;10.052;2023-05-07T01:25:10;15.38;;;11.27;;
47239;SDS011;32978;53.586;10.052;2023-05-07T01:30:07;14.27;;;11.40;;
47239;SDS011;32978;53.586;10.052;2023-05-07T01:35:05;11.63;;;10.43;;
47239;SDS011;32978;53.586;10.052;2023-05-07T01:40:04;12.90;;;9.60;;
47239;SDS011;32978;53.586;10.052;2023-05-07T01:45:03;11.90;;;10.30;;
47239;SDS011;32978;53.586;10.052;2023-05-07T01:50:00;13.00;;;10.60;;
47239;SDS011;32978;53.586;10.052;2023-05-07T01:54:56;13.18;;;10.15;;
47239;SDS011;32978;53.586;10.052;2023-05-07T01:59:53;11.68;;;9.85;;
47239;SDS011;32978;53.586;10.052;2023-05-07T02:04:49;11.45;;;10.23;;
47239;SDS011;32978;53.586;10.052;2023-05-07T02:09:46;11.38;;;9.93;;
47239;SDS011;32978;53.586;10.052;2023-05-07T02:14:45;12.98;;;10.43;;
47239;SDS011;32978;53.586;10.052;2023-05-07T02:19:42;11.70;;;9.82;;
47239;SDS011;32978;53.586;10.052;2023-05-07T02:24:38;10.40;;;9.30;;
47239;SDS011;32978;53.586;10.052;2023-05-07T02:29:34;13.32;;;10.43;;
47239;SDS011;32978;53.586;10.052;2023-05-07T02:34:31;12.40;;;9.43;;
47239;SDS011;32978;53.586;10.052;2023-05-07T02:39:27;11.63;;;9.63;;
47239;SDS011;32978;53.586;10.052;2023-05-07T02:44:24;12.25;;;10.00;;
47239;SDS011;32978;53.586;10.052;2023-05-07T02:49:20;12.88;;;10.00;;
47239;SDS011;32978;53.586;10.052;2023-05-07T02:54:17;11.77;;;9.57;;
47239;SDS011;32978;53.586;10.052;2023-05-07T02:59:14;13.93;;;11.18;;
47239;SDS011;32978;53.586;10.052;2023-05-07T03:04:10;11.18;;;9.75;;
47239;SDS011;32978;53.586;10.052;2023-05-07T03:09:07;17.77;;;10.63;;
47239;SDS011;32978;53.586;10.052;2023-05-07T03:14:03;13.10;;;10.18;;
47239;SDS011;32978;53.586;10.052;2023-05-07T03:19:00;13.20;;;10.32;;
47239;SDS011;32978;53.586;10.052;2023-05-07T03:23:59;12.43;;;10.90;;
47239;SDS011;32978;53.586;10.052;2023-05-07T03:28:56;13.95;;;10.50;;
47239;SDS011;32978;53.586;10.052;2023-05-07T03:33:53;14.25;;;11.85;;
47239;SDS011;32978;53.586;10.052;2023-05-07T03:38:51;14.50;;;10.73;;
47239;SDS011;32978;53.586;10.052;2023-05-07T03:43:47;10.43;;;9.30;;
47239;SDS011;32978;53.586;10.052;2023-05-07T03:48:44;11.40;;;10.20;;
47239;SDS011;32978;53.586;10.052;2023-05-07T03:53:40;10.88;;;9.43;;
47239;SDS011;32978;53.586;10.052;2023-05-07T03:58:37;11.95;;;10.65;;
47239;SDS011;32978;53.586;10.052;2023-05-07T04:03:33;15.15;;;11.50;;
47239;SDS011;32978;53.586;10.052;2023-05-07T04:08:30;13.30;;;10.63;;
47239;SDS011;32978;53.586;10.052;2023-05-07T04:13:26;13.27;;;10.82;;
47239;SDS011;32978;53.586;10.052;2023-05-07T04:18:23;13.02;;;9.95;;
47239;SDS011;32978;53.586;10.052;2023-05-07T04:23:19;11.80;;;9.73;;
47239;SDS011;32978;53.586;10.052;2023-05-07T04:28:16;12.90;;;10.07;;
47239;SDS011;32978;53.586;10.052;2023-05-07T04:33:13;11.35;;;9.27;;
47239;SDS011;32978;53.586;10.052;2023-05-07T04:38:12;11.60;;;9.95;;
47239;SDS011;32978;53.586;10.052;2023-05-07T04:43:08;11.75;;;9.07;;
47239;SDS011;32978;53.586;10.052;2023-05-07T04:48:05;11.93;;;8.90;;
47239;SDS011;32978;53.586;10.052;2023-05-07T04:53:01;9.95;;;8.88;;
47239;SDS011;32978;53.586;10.052;2023-05-07T04:57:59;10.80;;;9.43;;
47239;SDS011;32978;53.586;10.052;2023-05-07T05:02:57;11.65;;;9.50;;
47239;SDS011;32978;53.586;10.052;2023-05-07T05:07:54;12.93;;;10.20;;
47239;SDS011;32978;53.586;10.052;2023-05-07T05:12:50;11.27;;;9.85;;
47239;SDS011;32978;53.586;10.052;2023-05-07T05:17:47;11.50;;;9.43;;
47239;SDS011;32978;53.586;10.052;2023-05-07T05:22:43;11.50;;;9.20;;
47239;SDS011;32978;53.586;10.052;2023-05-07T05:27:40;12.85;;;9.90;;
47239;SDS011;32978;53.586;10.052;2023-05-07T05:32:37;10.82;;;9.18;;
47239;SDS011;32978;53.586;10.052;2023-05-07T05:37:33;12.90;;;10.93;;
47239;SDS011;32978;53.586;10.052;2023-05-07T05:42:30;13.00;;;11.02;;
47239;SDS011;32978;53.586;10.052;2023-05-07T05:47:26;14.23;;;10.73;;
47239;SDS011;32978;53.586;10.052;2023-05-07T05:52:23;14.15;;;10.80;;
47239;SDS011;32978;53.586;10.052;2023-05-07T05:57:22;13.73;;;10.75;;
47239;SDS011;32978;53.586;10.052;2023-05-07T06:02:18;11.65;;;9.60;;
47239;SDS011;32978;53.586;10.052;2023-05-07T06:07:15;13.63;;;10.18;;
47239;SDS011;32978;53.586;10.052;2023-05-07T06:12:11;12.15;;;10.82;;
47239;SDS011;32978;53.586;10.052;2023-05-07T06:17:08;10.88;;;9.68;;
47239;SDS011;32978;53.586;10.052;2023-05-07T06:22:04;11.38;;;9.90;;
47239;SDS011;32978;53.586;10.052;2023-05-07T06:27:01;10.07;;;8.98;;
47239;SDS011;32978;53.586;10.052;2023-05-07T06:32:05;11.00;;;9.82;;
47239;SDS011;32978;53.586;10.052;2023-05-07T06:37:06;12.05;;;9.75;;
47239;SDS011;32978;53.586;10.052;2023-05-07T06:42:03;10.45;;;9.18;;
47239;SDS011;32978;53.586;10.052;2023-05-07T06:47:00;10.13;;;8.63;;
47239;SDS011;32978;53.586;10.052;2023-05-07T06:51:57;10.65;;;9.55;;
47239;SDS011;32978;53.586;10.052;2023-05-07T06:56:53;10.82;;;9.73;;
47239;SDS011;32978;53.586;10.052;2023-05-07T07:01:52;10.23;;;8.48;;
47239;SDS011;32978;53.586;10.052;2023-05-07T07:06:49;11.85;;;8.98;;
47239;SDS011;32978;53.586;10.052;2023-05-07T07:11:48;10.45;;;9.35;;
47239;SDS011;32978;53.586;10.052;2023-05-07T07:16:44;10.57;;;9.07;;
47239;SDS011;32978;53.586;10.052;2023-05-07T07:21:42;10.48;;;9.38;;
47239;SDS011;32978;53.586;10.052;2023-05-07T07:26:39;11.57;;;8.68;;
47239;SDS011;32978;53.586;10.052;2023-05-07T07:31:35;9.80;;;8.77;;
47239;SDS011;32978;53.586;10.052;2023-05-07T07:36:32;9.82;;;8.80;;
47239;SDS011;32978;53.586;10.052;2023-05-07T07:41:41;9.27;;;8.27;;
47239;SDS011;32978;53.586;10.052;2023-05-07T07:46:38;9.13;;;8.27;;
47239;SDS011;32978;53.586;10.052;2023-05-07T07:51:34;8.40;;;7.60;;
47239;SDS011;32978;53.586;10.052;2023-05-07T07:56:34;8.63;;;7.82;;
47239;SDS011;32978;53.586;10.052;2023-05-07T08:01:34;9.75;;;8.52;;
47239;SDS011;32978;53.586;10.052;2023-05-07T08:06:30;9.05;;;8.15;;
47239;SDS011;32978;53.586;10.052;2023-05-07T08:11:27;10.93;;;7.90;;
47239;SDS011;32978;53.586;10.052;2023-05-07T08:16:23;9.82;;;8.07;;
47239;SDS011;32978;53.586;10.052;2023-05-07T08:21:20;10.02;;;8.18;;
47239;SDS011;32978;53.586;10.052;2023-05-07T08:26:16;9.88;;;8.88;;
47239;SDS011;32978;53.586;10.052;2023-05-07T08:31:13;8.90;;;8.00;;
47239;SDS011;32978;53.586;10.052;2023-05-07T08:36:09;8.57;;;7.78;;
47239;SDS011;32978;53.586;10.052;2023-05-07T08:41:06;9.90;;;8.82;;
47239;SDS011;32978;53.586;10.052;2023-05-07T08:46:03;9.00;;;8.15;;
47239;SDS011;32978;53.586;10.052;2023-05-07T08:51:03;10.48;;;8.30;;
47239;SDS011;32978;53.586;10.052;2023-05-07T08:55:59;10.15;;;9.05;;
47239;SDS011;32978;53.586;10.052;2023-05-07T09:00:57;9.40;;;8.50;;
47239;SDS011;32978;53.586;10.052;2023-05-07T09:05:55;9.48;;;8.48;;
47239;SDS011;32978;53.586;10.052;2023-05-07T09:10:51;8.50;;;7.68;;
47239;SDS011;32978;53.586;10.052;2023-05-07T09:15:48;9.10;;;8.18;;
47239;SDS011;32978;53.586;10.052;2023-05-07T09:20:44;9.77;;;7.93;;
47239;SDS011;32978;53.586;10.052;2023-05-07T09:25:42;8.35;;;7.55;;
47239;SDS011;32978;53.586;10.052;2023-05-07T09:30:38;7.75;;;6.95;;
47239;SDS011;32978;53.586;10.052;2023-05-07T09:35:35;12.55;;;8.20;;
47239;SDS011;32978;53.586;10.052;2023-05-07T09:40:31;8.20;;;7.40;;
47239;SDS011;32978;53.586;10.052;2023-05-07T09:45:28;11.95;;;7.95;;
47239;SDS011;32978;53.586;10.052;2023-05-07T09:50:32;8.07;;;7.28;;
47239;SDS011;32978;53.586;10.052;2023-05-07T09:55:39;7.55;;;6.85;;
47239;SDS011;32978;53.586;10.052;2023-05-07T10:00:36;9.38;;;7.53;;
47239;SDS011;32978;53.586;10.052;2023-05-07T10:05:34;7.72;;;6.93;;
47239;SDS011;32978;53.586;10.052;2023-05-07T10:10:32;7.32;;;6.63;;
47239;SDS011;32978;53.586;10.052;2023-05-07T10:15:29;8.00;;;7.10;;
47239;SDS011;32978;53.586;10.052;2023-05-07T10:20:26;8.30;;;7.50;;
47239;SDS011;32978;53.586;10.052;2023-05-07T10:25:28;7.82;;;7.13;;
47239;SDS011;32978;53.586;10.052;2023-05-07T10:30:33;7.93;;;7.18;;
47239;SDS011;32978;53.586;10.052;2023-05-07T10:35:44;12.85;;;7.10;;
47239;SDS011;32978;53.586;10.052;2023-05-07T10:40:43;7.53;;;6.85;;
47239;SDS011;32978;53.586;10.052;2023-05-07T10:45:43;7.38;;;6.63;;
47239;SDS011;32978;53.586;10.052;2023-05-07T10:51:34;8.50;;;7.68;;
47239;SDS011;32978;53.586;10.052;2023-05-07T11:02:05;8.35;;;7.65;;
47239;SDS011;32978;53.586;10.052;2023-05-07T11:12:08;6.93;;;6.22;;
47239;SDS011;32978;53.586;10.052;2023-05-07T11:17:05;8.07;;;7.38;;
47239;SDS011;32978;53.586;10.052;2023-05-07T11:22:02;7.32;;;6.72;;
47239;SDS011;32978;53.586;10.052;2023-05-07T11:26:59;7.88;;;7.07;;
47239;SDS011;32978;53.586;10.052;2023-05-07T11:31:56;7.32;;;6.70;;
47239;SDS011;32978;53.586;10.052;2023-05-07T11:36:54;7.25;;;6.65;;
47239;SDS011;32978;53.586;10.052;2023-05-07T11:41:51;7.45;;;6.82;;
47239;SDS011;32978;53.586;10.052;2023-05-07T11:46:49;7.47;;;6.78;;
47239;SDS011;32978;53.586;10.052;2023-05-07T11:51:45;8.13;;;7.32;;
47239;SDS011;32978;53.586;10.052;2023-05-07T11:56:43;8.25;;;7.55;;
47239;SDS011;32978;53.586;10.052;2023-05-07T12:01:41;7.30;;;6.60;;
47239;SDS011;32978;53.586;10.052;2023-05-07T12:06:41;7.53;;;6.82;;
47239;SDS011;32978;53.586;10.052;2023-05-07T12:11:38;7.20;;;6.50;;
47239;SDS011;32978;53.586;10.052;2023-05-07T12:16:35;8.15;;;7.45;;
47239;SDS011;32978;53.586;10.052;2023-05-07T12:21:32;7.63;;;6.88;;
47239;SDS011;32978;53.586;10.052;2023-05-07T12:26:29;7.38;;;6.68;;
47239;SDS011;32978;53.586;10.052;2023-05-07T12:31:26;6.65;;;6.05;;
47239;SDS011;32978;53.586;10.052;2023-05-07T12:36:23;6.90;;;6.20;;
47239;SDS011;32978;53.586;10.052;2023-05-07T12:41:19;6.68;;;6.07;;
47239;SDS011;32978;53.586;10.052;2023-05-07T12:46:21;6.50;;;5.90;;
47239;SDS011;32978;53.586;10.052;2023-05-07T12:51:19;7.25;;;6.00;;
47239;SDS011;32978;53.586;10.052;2023-05-07T12:56:21;7.43;;;6.72;;
47239;SDS011;32978;53.586;10.052;2023-05-07T13:01:19;7.38;;;6.40;;
47239;SDS011;32978;53.586;10.052;2023-05-07T13:06:15;6.72;;;5.88;;
47239;SDS011;32978;53.586;10.052;2023-05-07T13:11:12;6.20;;;5.70;;
47239;SDS011;32978;53.586;10.052;2023-05-07T13:16:09;6.63;;;5.93;;
47239;SDS011;32978;53.586;10.052;2023-05-07T13:21:07;6.63;;;6.13;;
47239;SDS011;32978;53.586;10.052;2023-05-07T13:26:04;6.35;;;5.75;;
47239;SDS011;32978;53.586;10.052;2023-05-07T13:31:20;6.15;;;5.55;;
47239;SDS011;32978;53.586;10.052;2023-05-07T13:36:17;5.95;;;5.45;;
47239;SDS011;32978;53.586;10.052;2023-05-07T13:41:13;6.13;;;5.53;;
47239;SDS011;32978;53.586;10.052;2023-05-07T13:46:10;6.47;;;5.93;;
47239;SDS011;32978;53.586;10.052;2023-05-07T13:51:07;6.03;;;5.53;;
47239;SDS011;32978;53.586;10.052;2023-05-07T13:56:04;5.97;;;5.47;;
47239;SDS011;32978;53.586;10.052;2023-05-07T14:01:01;6.55;;;6.05;;
47239;SDS011;32978;53.586;10.052;2023-05-07T14:05:57;5.80;;;5.15;;
47239;SDS011;32978;53.586;10.052;2023-05-07T14:10:55;8.15;;;5.22;;
47239;SDS011;32978;53.586;10.052;2023-05-07T14:15:52;6.00;;;5.40;;
47239;SDS011;32978;53.586;10.052;2023-05-07T14:20:48;6.18;;;5.07;;
47239;SDS011;32978;53.586;10.052;2023-05-07T14:25:45;5.88;;;4.88;;
47239;SDS011;32978;53.586;10.052;2023-05-07T14:30:43;4.97;;;4.57;;
47239;SDS011;32978;53.586;10.052;2023-05-07T14:35:40;5.72;;;5.22;;
47239;SDS011;32978;53.586;10.052;2023-05-07T14:40:36;5.32;;;4.93;;
47239;SDS011;32978;53.586;10.052;2023-05-07T14:45:32;5.97;;;5.00;;
47239;SDS011;32978;53.586;10.052;2023-05-07T14:50:29;6.55;;;5.10;;
47239;SDS011;32978;53.586;10.052;2023-05-07T14:55:26;5.53;;;4.70;;
47239;SDS011;32978;53.586;10.052;2023-05-07T15:00:22;5.78;;;4.80;;
47239;SDS011;32978;53.586;10.052;2023-05-07T15:05:19;6.32;;;4.55;;
47239;SDS011;32978;53.586;10.052;2023-05-07T15:10:15;5.47;;;4.97;;
47239;SDS011;32978;53.586;10.052;2023-05-07T15:15:12;5.70;;;5.18;;
47239;SDS011;32978;53.586;10.052;2023-05-07T15:20:09;5.38;;;4.70;;
47239;SDS011;32978;53.586;10.052;2023-05-07T15:25:05;6.07;;;5.20;;
47239;SDS011;32978;53.586;10.052;2023-05-07T15:30:02;5.43;;;4.93;;
47239;SDS011;32978;53.586;10.052;2023-05-07T15:34:59;7.32;;;4.78;;
47239;SDS011;32978;53.586;10.052;2023-05-07T15:39:55;4.93;;;4.50;;
47239;SDS011;32978;53.586;10.052;2023-05-07T15:44:52;5.32;;;4.88;;
47239;SDS011;32978;53.586;10.052;2023-05-07T15:49:48;6.55;;;5.28;;
47239;SDS011;32978;53.586;10.052;2023-05-07T15:54:45;5.55;;;5.05;;
47239;SDS011;32978;53.586;10.052;2023-05-07T15:59:41;6.20;;;5.28;;
47239;SDS011;32978;53.586;10.052;2023-05-07T16:04:38;5.60;;;5.10;;
47239;SDS011;32978;53.586;10.052;2023-05-07T16:09:35;5.28;;;4.88;;
47239;SDS011;32978;53.586;10.052;2023-05-07T16:14:31;5.00;;;4.60;;
47239;SDS011;32978;53.586;10.052;2023-05-07T16:19:28;5.15;;;4.68;;
47239;SDS011;32978;53.586;10.052;2023-05-07T16:24:24;5.40;;;4.90;;
47239;SDS011;32978;53.586;10.052;2023-05-07T16:29:21;5.15;;;4.75;;
47239;SDS011;32978;53.586;10.052;2023-05-07T16:34:18;5.50;;;5.10;;
47239;SDS011;32978;53.586;10.052;2023-05-07T16:39:14;6.05;;;5.00;;
47239;SDS011;32978;53.586;10.052;2023-05-07T16:44:11;5.70;;;5.20;;
47239;SDS011;32978;53.586;10.052;2023-05-07T16:49:08;6.63;;;5.93;;
47239;SDS011;32978;53.586;10.052;2023-05-07T16:54:05;6.70;;;5.30;;
47239;SDS011;32978;53.586;10.052;2023-05-07T16:59:01;6.68;;;5.38;;
47239;SDS011;32978;53.586;10.052;2023-05-07T17:03:58;5.63;;;5.13;;
47239;SDS011;32978;53.586;10.052;2023-05-07T17:08:55;6.18;;;5.10;;
47239;SDS011;32978;53.586;10.052;2023-05-07T17:13:51;6.13;;;5.28;;
47239;SDS011;32978;53.586;10.052;2023-05-07T17:18:47;5.65;;;4.70;;
47239;SDS011;32978;53.586;10.052;2023-05-07T17:23:44;5.10;;;4.70;;
47239;SDS011;32978;53.586;10.052;2023-05-07T17:28:40;7.22;;;5.15;;
47239;SDS011;32978;53.586;10.052;2023-05-07T17:33:37;5.63;;;5.13;;
47239;SDS011;32978;53.586;10.052;2023-05-07T17:38:34;6.07;;;5.57;;
47239;SDS011;32978;53.586;10.052;2023-05-07T17:43:30;5.47;;;4.97;;
47239;SDS011;32978;53.586;10.052;2023-05-07T17:48:27;5.43;;;4.93;;
47239;SDS011;32978;53.586;10.052;2023-05-07T17:53:23;6.10;;;5.03;;
47239;SDS011;32978;53.586;10.052;2023-05-07T17:58:22;5.68;;;5.13;;
47239;SDS011;32978;53.586;10.052;2023-05-07T18:03:20;6.72;;;4.97;;
47239;SDS011;32978;53.586;10.052;2023-05-07T18:08:19;5.55;;;5.07;;
47239;SDS011;32978;53.586;10.052;2023-05-07T18:13:16;6.07;;;5.50;;
47239;SDS011;32978;53.586;10.052;2023-05-07T18:18:12;6.13;;;5.10;;
47239;SDS011;32978;53.586;10.052;2023-05-07T18:23:09;6.00;;;5.50;;
47239;SDS011;32978;53.586;10.052;2023-05-07T18:28:06;5.88;;;5.38;;
47239;SDS011;32978;53.586;10.052;2023-05-07T18:33:02;5.60;;;5.10;;
47239;SDS011;32978;53.586;10.052;2023-05-07T18:37:59;5.97;;;5.47;;
47239;SDS011;32978;53.586;10.052;2023-05-07T18:42:55;6.72;;;6.03;;
47239;SDS011;32978;53.586;10.052;2023-05-07T18:47:52;5.68;;;5.18;;
47239;SDS011;32978;53.586;10.052;2023-05-07T18:52:48;6.20;;;5.60;;
47239;SDS011;32978;53.586;10.052;2023-05-07T18:57:45;7.30;;;5.00;;
47239;SDS011;32978;53.586;10.052;2023-05-07T19:02:41;6.43;;;4.90;;
47239;SDS011;32978;53.586;10.052;2023-05-07T19:07:38;5.32;;;4.82;;
47239;SDS011;32978;53.586;10.052;2023-05-07T19:12:34;5.65;;;5.07;;
47239;SDS011;32978;53.586;10.052;2023-05-07T19:17:31;5.65;;;5.15;;
47239;SDS011;32978;53.586;10.052;2023-05-07T19:22:27;6.50;;;5.90;;
47239;SDS011;32978;53.586;10.052;2023-05-07T19:27:24;5.90;;;5.25;;
47239;SDS011;32978;53.586;10.052;2023-05-07T19:32:20;5.65;;;5.15;;
47239;SDS011;32978;53.586;10.052;2023-05-07T19:37:17;6.07;;;5.55;;
47239;SDS011;32978;53.586;10.052;2023-05-07T19:42:13;6.05;;;5.55;;
47239;SDS011;32978;53.586;10.052;2023-05-07T19:47:10;6.35;;;5.82;;
47239;SDS011;32978;53.586;10.052;2023-05-07T19:52:07;6.40;;;5.90;;
47239;SDS011;32978;53.586;10.052;2023-05-07T19:57:03;6.22;;;5.72;;
47239;SDS011;32978;53.586;10.052;2023-05-07T20:02:00;7.00;;;6.32;;
47239;SDS011;32978;53.586;10.052;2023-05-07T20:06:58;6.80;;;6.20;;
47239;SDS011;32978;53.586;10.052;2023-05-07T20:11:54;6.82;;;6.32;;
47239;SDS011;32978;53.586;10.052;2023-05-07T20:16:55;6.68;;;6.07;;
47239;SDS011;32978;53.586;10.052;2023-05-07T20:21:51;6.70;;;5.90;;
47239;SDS011;32978;53.586;10.052;2023-05-07T20:26:48;7.22;;;6.63;;
47239;SDS011;32978;53.586;10.052;2023-05-07T20:31:44;6.53;;;5.93;;
47239;SDS011;32978;53.586;10.052;2023-05-07T20:36:41;7.25;;;6.32;;
47239;SDS011;32978;53.586;10.052;2023-05-07T20:41:37;7.00;;;6.30;;
47239;SDS011;32978;53.586;10.052;2023-05-07T20:46:34;7.35;;;6.63;;
47239;SDS011;32978;53.586;10.052;2023-05-07T20:51:32;7.00;;;6.30;;
47239;SDS011;32978;53.586;10.052;2023-05-07T20:56:28;7.68;;;6.97;;
47239;SDS011;32978;53.586;10.052;2023-05-07T21:01:25;9.57;;;6.50;;
47239;SDS011;32978;53.586;10.052;2023-05-07T21:06:21;8.38;;;6.60;;
47239;SDS011;32978;53.586;10.052;2023-05-07T21:11:18;6.88;;;6.22;;
47239;SDS011;32978;53.586;10.052;2023-05-07T21:16:17;7.60;;;6.57;;
47239;SDS011;32978;53.586;10.052;2023-05-07T21:21:13;7.93;;;6.15;;
47239;SDS011;32978;53.586;10.052;2023-05-07T21:26:17;6.43;;;5.82;;
47239;SDS011;32978;53.586;10.052;2023-05-07T21:31:14;6.80;;;6.15;;
47239;SDS011;32978;53.586;10.052;2023-05-07T21:36:11;6.95;;;6.28;;
47239;SDS011;32978;53.586;10.052;2023-05-07T21:41:07;6.90;;;6.30;;
47239;SDS011;32978;53.586;10.052;2023-05-07T21:46:07;7.32;;;6.63;;
47239;SDS011;32978;53.586;10.052;2023-05-07T21:51:05;7.70;;;6.32;;
47239;SDS011;32978;53.586;10.052;2023-05-07T21:56:02;6.93;;;6.28;;
47239;SDS011;32978;53.586;10.052;2023-05-07T22:01:00;6.40;;;5.85;;
47239;SDS011;32978;53.586;10.052;2023-05-07T22:05:56;6.47;;;5.88;;
47239;SDS011;32978;53.586;10.052;2023-05-07T22:10:53;6.38;;;5.78;;
47239;SDS011;32978;53.586;10.052;2023-05-07T22:15:49;7.40;;;6.60;;
47239;SDS011;32978;53.586;10.052;2023-05-07T22:20:53;6.55;;;5.85;;
47239;SDS011;32978;53.586;10.052;2023-05-07T22:25:50;6.30;;;5.68;;
47239;SDS011;32978;53.586;10.052;2023-05-07T22:30:46;6.68;;;5.72;;
47239;SDS011;32978;53.586;10.052;2023-05-07T22:35:43;6.65;;;5.90;;
47239;SDS011;32978;53.586;10.052;2023-05-07T22:40:39;6.80;;;6.10;;
47239;SDS011;32978;53.586;10.052;2023-05-07T22:45:35;6.45;;;5.95;;
47239;SDS011;32978;53.586;10.052;2023-05-07T22:50:35;5.97;;;5.45;;
47239;SDS011;32978;53.586;10.052;2023-05-07T22:55:33;8.50;;;6.10;;
47239;SDS011;32978;53.586;10.052;2023-05-07T23:00:29;6.05;;;5.45;;
47239;SDS011;32978;53.586;10.052;2023-05-07T23:05:26;6.75;;;6.03;;
47239;SDS011;32978;53.586;10.052;2023-05-07T23:10:23;6.47;;;5.97;;
47239;SDS011;32978;53.586;10.052;2023-05-07T23:15:19;6.20;;;5.60;;
47239;SDS011;32978;53.586;10.052;2023-05-07T23:20:16;6.03;;;5.43;;
47239;SDS011;32978;53.586;10.052;2023-05-07T23:25:12;5.90;;;5.40;;
47239;SDS011;32978;53.586;10.052;2023-05-07T23:30:09;5.50;;;5.03;;
47239;SDS011;32978;53.586;10.052;2023-05-07T23:35:06;5.50;;;5.00;;
47239;SDS011;32978;53.586;10.052;2023-05-07T23:40:03;6.13;;;5.53;;
47239;SDS011;32978;53.586;10.052;2023-05-07T23:45:01;6.00;;;5.40;;
47239;SDS011;32978;53.586;10.052;2023-05-07T23:49:58;5.50;;;5.00;;
47239;SDS011;32978;53.586;10.052;2023-05-07T23:54:54;5.40;;;4.90;;
47239;SDS011;32978;53.586;10.052;2023-05-07T23:59:51;6.00;;;5.20;;
